createdAt,value
2019-04-05T00:00:18.093Z,7.63
2019-04-05T00:02:46.772Z,6.10
2019-04-05T00:05:15.451Z,8.17
2019-04-05T00:07:44.110Z,6.93
2019-04-05T00:10:12.783Z,6.30
2019-04-05T00:12:41.484Z,7.10
2019-04-05T00:15:15.761Z,6.30
2019-04-05T00:17:40.571Z,6.40
2019-04-05T00:20:09.245Z,6.60
2019-04-05T00:22:38.009Z,6.77
2019-04-05T00:25:07.719Z,6.40
2019-04-05T00:27:36.419Z,6.33
2019-04-05T00:30:05.497Z,6.97
2019-04-05T00:32:34.201Z,6.47
2019-04-05T00:35:02.843Z,7.37
2019-04-05T00:37:31.613Z,6.20
2019-04-05T00:40:00.272Z,8.03
2019-04-05T00:42:28.943Z,6.60
2019-04-05T00:44:57.631Z,6.53
2019-04-05T00:47:26.332Z,6.40
2019-04-05T00:49:55.383Z,10.07
2019-04-05T00:52:24.060Z,6.00
2019-04-05T00:54:52.711Z,7.07
2019-04-05T00:57:21.404Z,6.90
2019-04-05T00:59:50.111Z,6.47
2019-04-05T01:02:18.816Z,6.20
2019-04-05T01:04:47.459Z,7.10
2019-04-05T01:07:16.171Z,6.23
2019-04-05T01:09:44.869Z,6.30
2019-04-05T01:12:13.610Z,7.93
2019-04-05T01:14:42.321Z,6.60
2019-04-05T01:17:10.991Z,6.50
2019-04-05T01:19:39.679Z,7.00
2019-04-05T01:22:08.394Z,6.07
2019-04-05T01:24:37.086Z,7.00
2019-04-05T01:27:05.833Z,6.20
2019-04-05T01:29:34.550Z,6.10
2019-04-05T01:32:03.243Z,6.67
2019-04-05T01:34:31.953Z,7.13
2019-04-05T01:37:00.916Z,7.10
2019-04-05T01:39:29.598Z,6.03
2019-04-05T01:41:58.322Z,6.90
2019-04-05T01:44:27.008Z,6.87
2019-04-05T01:46:55.661Z,6.30
2019-04-05T01:49:24.408Z,6.97
2019-04-05T01:51:53.055Z,6.30
2019-04-05T01:54:21.770Z,6.33
2019-04-05T01:56:50.414Z,6.50
2019-04-05T01:59:19.101Z,6.60
2019-04-05T02:01:47.756Z,6.67
2019-04-05T02:04:16.435Z,6.60
2019-04-05T02:06:45.071Z,7.00
2019-04-05T02:09:13.789Z,6.63
2019-04-05T02:11:42.490Z,6.63
2019-04-05T02:14:11.192Z,6.70
2019-04-05T02:16:40.065Z,6.57
2019-04-05T02:19:08.732Z,6.57
2019-04-05T02:21:37.393Z,5.87
2019-04-05T02:24:06.115Z,9.20
2019-04-05T02:26:34.805Z,6.63
2019-04-05T02:29:03.472Z,6.20
2019-04-05T02:31:32.165Z,6.23
2019-04-05T02:34:00.868Z,6.43
2019-04-05T02:36:29.526Z,6.43
2019-04-05T02:38:58.245Z,6.27
2019-04-05T02:41:26.910Z,6.27
2019-04-05T02:43:55.838Z,6.37
2019-04-05T02:46:24.582Z,6.43
2019-04-05T02:48:54.079Z,6.03
2019-04-05T02:51:23.757Z,6.67
2019-04-05T02:53:52.795Z,6.57
2019-04-05T02:56:21.472Z,6.00
2019-04-05T02:58:50.208Z,5.70
2019-04-05T03:01:22.345Z,6.83
2019-04-05T03:03:49.277Z,6.83
2019-04-05T03:06:17.980Z,6.73
2019-04-05T03:08:46.713Z,5.90
2019-04-05T03:11:15.948Z,6.90
2019-04-05T03:13:50.687Z,6.40
2019-04-05T03:16:39.182Z,7.13
2019-04-05T03:19:01.005Z,6.63
2019-04-05T03:21:30.156Z,6.53
2019-04-05T03:23:59.914Z,6.10
2019-04-05T03:26:30.892Z,6.47
2019-04-05T03:28:59.838Z,6.17
2019-04-05T03:31:28.542Z,6.23
2019-04-05T03:33:57.227Z,6.00
2019-04-05T03:36:25.970Z,5.90
2019-04-05T03:38:54.641Z,6.17
2019-04-05T03:41:23.368Z,5.90
2019-04-05T03:43:52.140Z,5.60
2019-04-05T03:46:20.883Z,6.13
2019-04-05T03:48:49.560Z,5.83
2019-04-05T03:51:18.643Z,5.93
2019-04-05T03:53:47.443Z,6.20
2019-04-05T03:56:16.102Z,5.73
2019-04-05T03:58:44.827Z,6.40
2019-04-05T04:01:14.439Z,7.27
2019-04-05T04:03:43.149Z,6.07
2019-04-05T04:06:11.912Z,6.23
2019-04-05T04:08:40.581Z,5.93
2019-04-05T04:11:09.301Z,5.83
2019-04-05T04:13:38.068Z,6.20
2019-04-05T04:16:06.837Z,5.90
2019-04-05T04:18:35.496Z,6.00
2019-04-05T04:21:10.223Z,6.27
2019-04-05T04:23:38.995Z,5.70
2019-04-05T04:26:08.344Z,5.50
2019-04-05T04:28:37.712Z,5.93
2019-04-05T04:31:06.370Z,6.10
2019-04-05T04:33:35.059Z,5.87
2019-04-05T04:36:03.843Z,6.63
2019-04-05T04:38:32.629Z,7.50
2019-04-05T04:41:01.356Z,5.93
2019-04-05T04:43:30.042Z,5.60
2019-04-05T04:45:58.729Z,6.10
2019-04-05T04:48:27.806Z,6.70
2019-04-05T04:50:56.527Z,6.50
2019-04-05T04:53:25.280Z,6.70
2019-04-05T04:55:53.946Z,6.57
2019-04-05T04:58:22.636Z,6.07
2019-04-05T05:00:51.310Z,5.73
2019-04-05T05:03:20.055Z,7.73
2019-04-05T05:05:49.385Z,7.17
2019-04-05T05:08:18.075Z,8.67
2019-04-05T05:10:46.937Z,7.33
2019-04-05T05:13:15.679Z,7.47
2019-04-05T05:15:44.378Z,6.10
2019-04-05T05:18:13.236Z,6.87
2019-04-05T05:20:42.797Z,5.67
2019-04-05T05:23:11.979Z,6.20
2019-04-05T05:25:40.671Z,6.10
2019-04-05T05:28:09.566Z,6.30
2019-04-05T05:30:38.735Z,6.63
2019-04-05T05:33:07.408Z,6.93
2019-04-05T05:35:36.178Z,5.90
2019-04-05T05:38:04.873Z,8.23
2019-04-05T05:40:35.129Z,6.50
2019-04-05T05:43:03.996Z,8.13
2019-04-05T05:45:32.703Z,7.40
2019-04-05T05:48:01.456Z,6.80
2019-04-05T05:50:30.253Z,30.53
2019-04-05T05:52:58.969Z,22.70
2019-04-05T05:55:30.066Z,21.57
2019-04-05T05:57:58.716Z,22.67
2019-04-05T06:00:30.170Z,29.17
2019-04-05T06:02:58.148Z,35.87
2019-04-05T06:05:26.856Z,28.10
2019-04-05T06:07:55.534Z,30.37
2019-04-05T06:10:24.188Z,28.47
2019-04-05T06:12:52.907Z,26.20
2019-04-05T06:15:21.547Z,20.00
2019-04-05T06:17:50.303Z,25.23
2019-04-05T06:20:19.498Z,17.57
2019-04-05T06:22:48.176Z,26.60
2019-04-05T06:25:16.833Z,22.93
2019-04-05T06:27:45.487Z,24.07
2019-04-05T06:30:14.148Z,20.73
2019-04-05T06:32:42.878Z,21.40
2019-04-05T06:35:11.630Z,26.37
2019-04-05T06:37:40.279Z,20.23
2019-04-05T06:40:09.001Z,20.30
2019-04-05T06:42:37.683Z,14.30
2019-04-05T06:45:06.367Z,17.07
2019-04-05T06:47:35.037Z,19.03
2019-04-05T06:50:03.991Z,16.23
2019-04-05T06:52:32.712Z,20.03
2019-04-05T06:55:01.470Z,17.03
2019-04-05T06:57:30.127Z,18.23
2019-04-05T06:59:58.802Z,19.30
2019-04-05T07:02:27.620Z,12.77
2019-04-05T07:04:56.267Z,17.80
2019-04-05T07:07:24.922Z,13.00
2019-04-05T07:09:53.579Z,12.93
2019-04-05T07:12:22.240Z,11.50
2019-04-05T07:14:50.938Z,14.43
2019-04-05T07:17:19.595Z,12.90
2019-04-05T07:19:48.254Z,10.43
2019-04-05T07:22:16.915Z,13.60
2019-04-05T07:24:45.585Z,17.40
2019-04-05T07:27:14.233Z,9.47
2019-04-05T07:29:42.936Z,10.13
2019-04-05T07:32:11.748Z,11.43
2019-04-05T07:34:40.426Z,11.93
2019-04-05T07:37:09.199Z,11.27
2019-04-05T07:39:37.839Z,7.57
2019-04-05T07:42:06.667Z,9.23
2019-04-05T07:44:35.364Z,8.13
2019-04-05T07:47:04.064Z,10.40
2019-04-05T07:49:32.737Z,10.20
2019-04-05T07:52:01.403Z,13.00
2019-04-05T07:54:30.044Z,5.57
2019-04-05T07:56:58.726Z,8.13
2019-04-05T07:59:27.383Z,10.37
2019-04-05T08:01:56.035Z,6.87
2019-04-05T08:04:24.691Z,8.33
2019-04-05T08:06:53.399Z,6.50
2019-04-05T08:09:22.806Z,8.37
2019-04-05T08:11:51.458Z,6.03
2019-04-05T08:14:20.139Z,6.00
2019-04-05T08:16:48.818Z,7.97
2019-04-05T08:19:17.480Z,6.07
2019-04-05T08:21:46.157Z,7.20
2019-04-05T08:24:14.802Z,7.33
2019-04-05T08:26:43.488Z,5.60
2019-04-05T08:29:12.136Z,6.13
2019-04-05T08:31:40.837Z,7.10
2019-04-05T08:34:09.469Z,5.80
2019-04-05T08:36:38.145Z,6.23
2019-04-05T08:39:08.174Z,7.17
2019-04-05T08:41:37.032Z,4.80
2019-04-05T08:44:07.660Z,4.57
2019-04-05T08:46:36.318Z,5.13
2019-04-05T08:49:11.073Z,4.43
2019-04-05T08:51:35.727Z,4.57
2019-04-05T08:54:04.472Z,4.73
2019-04-05T08:56:33.234Z,4.87
2019-04-05T08:59:01.915Z,4.17
2019-04-05T09:01:30.551Z,4.73
2019-04-05T09:03:59.223Z,7.17
2019-04-05T09:06:27.906Z,4.40
2019-04-05T09:08:56.556Z,3.80
2019-04-05T09:11:25.279Z,4.67
2019-04-05T09:13:54.699Z,4.37
2019-04-05T09:16:23.426Z,4.20
2019-04-05T09:18:52.104Z,4.90
2019-04-05T09:21:20.790Z,4.13
2019-04-05T09:23:49.464Z,3.27
2019-04-05T09:26:18.111Z,3.47
2019-04-05T09:28:46.807Z,3.63
2019-04-05T09:31:15.522Z,3.47
2019-04-05T09:33:44.181Z,3.40
2019-04-05T09:36:12.832Z,3.40
2019-04-05T09:38:41.513Z,3.43
2019-04-05T09:41:10.167Z,3.33
2019-04-05T09:43:38.896Z,2.93
2019-04-05T09:46:07.855Z,2.70
2019-04-05T09:48:36.607Z,3.40
2019-04-05T09:51:07.106Z,3.50
2019-04-05T09:53:35.746Z,2.30
2019-04-05T09:56:04.378Z,3.53
2019-04-05T09:58:33.055Z,3.07
2019-04-05T10:01:01.691Z,2.67
2019-04-05T10:03:30.442Z,5.07
2019-04-05T10:05:59.107Z,2.60
2019-04-05T10:08:27.740Z,3.43
2019-04-05T10:10:56.867Z,3.23
2019-04-05T10:13:25.525Z,2.40
2019-04-05T10:15:54.268Z,3.37
2019-04-05T10:18:22.935Z,2.87
2019-04-05T10:20:51.646Z,2.00
2019-04-05T10:23:20.293Z,2.40
2019-04-05T10:25:48.942Z,2.33
2019-04-05T10:28:17.633Z,2.67
2019-04-05T10:30:46.376Z,1.93
2019-04-05T10:33:15.048Z,2.10
2019-04-05T10:35:43.837Z,2.00
2019-04-05T10:38:12.506Z,2.47
2019-04-05T10:40:41.180Z,2.90
2019-04-05T10:43:09.857Z,2.20
2019-04-05T10:45:38.498Z,2.40
2019-04-05T10:48:07.280Z,2.00
2019-04-05T10:50:35.918Z,1.93
2019-04-05T10:53:04.673Z,2.50
2019-04-05T10:55:33.383Z,1.80
2019-04-05T10:58:02.119Z,2.10
2019-04-05T11:00:31.348Z,1.80
2019-04-05T11:03:00.031Z,2.03
2019-04-05T11:05:28.703Z,2.20
2019-04-05T11:07:57.378Z,2.00
2019-04-05T11:10:26.037Z,1.97
2019-04-05T11:12:54.666Z,3.40
2019-04-05T11:15:23.336Z,2.00
2019-04-05T11:17:51.975Z,1.97
2019-04-05T11:20:21.794Z,1.60
2019-04-05T11:22:51.409Z,1.70
2019-04-05T11:25:20.944Z,2.30
2019-04-05T11:27:50.307Z,1.73
2019-04-05T11:30:43.530Z,1.70
2019-04-05T11:33:12.235Z,1.60
2019-04-05T11:35:41.878Z,2.00
2019-04-05T11:38:10.569Z,1.50
2019-04-05T11:40:39.250Z,1.70
2019-04-05T11:43:07.912Z,1.90
2019-04-05T11:45:37.018Z,1.47
2019-04-05T11:48:06.002Z,1.73
2019-04-05T11:50:35.099Z,1.50
2019-04-05T11:53:04.220Z,1.37
2019-04-05T11:55:32.869Z,1.70
2019-04-05T11:58:01.538Z,1.70
2019-04-05T12:00:38.673Z,1.93
2019-04-05T12:03:25.919Z,1.70
2019-04-05T12:05:54.621Z,1.60
2019-04-05T12:08:23.289Z,1.47
2019-04-05T12:13:38.232Z,1.57
2019-04-05T12:16:10.284Z,1.53
2019-04-05T12:18:37.296Z,1.30
2019-04-05T12:21:06.012Z,1.20
2019-04-05T12:23:35.091Z,1.90
2019-04-05T12:26:04.792Z,1.50
2019-04-05T12:28:34.139Z,1.90
2019-04-05T12:31:03.012Z,1.40
2019-04-05T12:33:31.656Z,1.13
2019-04-05T12:36:00.399Z,1.37
2019-04-05T12:38:33.272Z,1.27
2019-04-05T12:41:03.590Z,1.50
2019-04-05T12:43:33.032Z,1.60
2019-04-05T12:46:01.676Z,1.40
2019-04-05T12:48:30.355Z,1.20
2019-04-05T12:51:01.309Z,1.20
2019-04-05T12:53:30.270Z,1.47
2019-04-05T12:55:58.935Z,1.17
2019-04-05T12:58:27.587Z,1.30
2019-04-05T13:00:57.031Z,1.50
2019-04-05T13:03:26.368Z,1.30
2019-04-05T13:05:57.171Z,1.40
2019-04-05T13:08:25.577Z,1.20
2019-04-05T13:10:55.807Z,1.50
2019-04-05T13:13:26.856Z,2.90
2019-04-05T13:15:55.011Z,1.23
2019-04-05T13:18:25.105Z,2.53
2019-04-05T13:20:54.135Z,1.30
2019-04-05T13:23:22.807Z,1.67
2019-04-05T13:25:51.458Z,1.10
2019-04-05T13:28:20.130Z,1.40
2019-04-05T13:30:49.384Z,1.60
2019-04-05T13:33:18.802Z,1.23
2019-04-05T13:35:47.493Z,1.17
2019-04-05T13:38:16.179Z,1.20
2019-04-05T13:40:44.846Z,1.40
2019-04-05T13:43:13.498Z,1.70
2019-04-05T13:45:42.156Z,0.97
2019-04-05T13:48:11.437Z,1.50
2019-04-05T13:50:41.665Z,2.00
2019-04-05T13:53:11.807Z,1.73
2019-04-05T13:55:41.300Z,1.60
2019-04-05T13:58:11.177Z,1.40
2019-04-05T14:00:40.914Z,1.13
2019-04-05T14:03:09.590Z,1.40
2019-04-05T14:05:38.235Z,1.50
2019-04-05T14:08:10.470Z,1.10
2019-04-05T14:10:37.308Z,1.40
2019-04-05T14:13:07.626Z,1.40
2019-04-05T14:15:36.381Z,2.10
2019-04-05T14:18:05.033Z,1.50
2019-04-05T14:20:33.682Z,1.20
2019-04-05T14:23:02.373Z,1.90
2019-04-05T14:25:31.080Z,1.70
2019-04-05T14:27:59.761Z,1.73
2019-04-05T14:30:28.435Z,1.20
2019-04-05T14:32:57.086Z,1.50
2019-04-05T14:35:25.758Z,1.37
2019-04-05T14:37:55.155Z,1.70
2019-04-05T14:40:28.353Z,1.37
2019-04-05T14:42:54.647Z,1.70
2019-04-05T14:45:23.405Z,1.20
2019-04-05T14:47:52.055Z,1.10
2019-04-05T14:50:20.724Z,2.80
2019-04-05T14:52:49.809Z,1.70
2019-04-05T14:55:18.915Z,1.40
2019-04-05T14:57:47.599Z,1.53
2019-04-05T15:00:16.262Z,1.37
2019-04-05T15:02:44.900Z,2.00
2019-04-05T15:05:13.606Z,1.20
2019-04-05T15:07:42.258Z,1.50
2019-04-05T15:10:10.961Z,1.57
2019-04-05T15:12:39.683Z,1.00
2019-04-05T15:15:09.149Z,1.00
2019-04-05T15:17:47.851Z,1.10
2019-04-05T15:20:08.239Z,1.60
2019-04-05T15:22:36.893Z,1.20
2019-04-05T15:25:05.774Z,1.07
2019-04-05T15:27:34.419Z,1.30
2019-04-05T15:30:03.119Z,1.67
2019-04-05T15:32:33.448Z,1.40
2019-04-05T15:35:02.110Z,1.67
2019-04-05T15:37:32.538Z,1.90
2019-04-05T15:40:01.154Z,2.03
2019-04-05T15:42:29.807Z,1.50
2019-04-05T15:44:58.459Z,1.50
2019-04-05T15:47:27.107Z,1.80
2019-04-05T15:49:55.769Z,1.67
2019-04-05T15:52:27.884Z,1.73
2019-04-05T15:54:54.831Z,1.93
2019-04-05T15:57:23.491Z,1.57
2019-04-05T15:59:52.126Z,1.40
2019-04-05T16:02:20.960Z,1.60
2019-04-05T16:04:49.606Z,1.80
2019-04-05T16:07:18.261Z,1.93
2019-04-05T16:09:46.900Z,1.90
2019-04-05T16:12:15.793Z,1.50
2019-04-05T16:14:44.458Z,1.20
2019-04-05T16:17:13.157Z,0.90
2019-04-05T16:19:41.819Z,1.03
2019-04-05T16:22:10.480Z,1.30
2019-04-05T16:24:39.121Z,1.20
2019-04-05T16:27:07.948Z,1.60
2019-04-05T16:29:36.606Z,1.70
2019-04-05T16:32:05.240Z,1.70
2019-04-05T16:34:33.911Z,1.60
2019-04-05T16:37:02.644Z,2.33
2019-04-05T16:39:31.290Z,1.40
2019-04-05T16:41:59.958Z,1.20
2019-04-05T16:44:28.610Z,1.33
2019-04-05T16:46:57.287Z,1.43
2019-04-05T16:49:25.935Z,2.90
2019-04-05T16:51:54.584Z,1.00
2019-04-05T16:54:23.250Z,1.13
2019-04-05T16:56:51.908Z,1.40
2019-04-05T16:59:20.623Z,1.50
2019-04-05T17:01:49.254Z,2.33
2019-04-05T17:04:18.496Z,2.40
2019-04-05T17:06:47.149Z,1.57
2019-04-05T17:09:15.814Z,1.50
2019-04-05T17:11:44.454Z,1.30
2019-04-05T17:14:13.118Z,1.13
2019-04-05T17:16:41.790Z,1.23
2019-04-05T17:19:10.445Z,2.27
2019-04-05T17:21:39.111Z,1.13
2019-04-05T17:24:07.763Z,1.33
2019-04-05T17:26:36.412Z,2.67
2019-04-05T17:29:05.148Z,2.63
2019-04-05T17:31:33.800Z,1.90
2019-04-05T17:34:02.447Z,1.20
2019-04-05T17:36:31.132Z,1.03
2019-04-05T17:39:19.150Z,1.20
2019-04-05T17:41:47.936Z,1.40
2019-04-05T17:44:16.673Z,1.50
2019-04-05T17:46:45.923Z,3.13
2019-04-05T17:49:14.611Z,1.13
2019-04-05T17:51:44.111Z,2.00
2019-04-05T17:54:12.771Z,2.33
2019-04-05T17:56:41.436Z,4.33
2019-04-05T17:59:10.119Z,1.33
2019-04-05T18:01:38.977Z,1.07
2019-04-05T18:04:08.395Z,1.43
2019-04-05T18:06:37.721Z,2.97
2019-04-05T18:09:06.970Z,2.43
2019-04-05T18:11:35.668Z,2.90
2019-04-05T18:14:04.416Z,3.20
2019-04-05T18:16:33.100Z,3.17
2019-04-05T18:19:01.780Z,1.23
2019-04-05T18:21:30.426Z,1.30
2019-04-05T18:23:59.279Z,1.37
2019-04-05T18:26:28.023Z,3.63
2019-04-05T18:28:56.694Z,2.43
2019-04-05T18:31:25.370Z,5.50
2019-04-05T18:33:54.019Z,2.03
2019-04-05T18:36:22.682Z,1.90
2019-04-05T18:38:51.334Z,2.30
2019-04-05T18:41:19.981Z,1.67
2019-04-05T18:43:48.651Z,3.13
2019-04-05T18:46:17.387Z,1.70
2019-04-05T18:48:46.034Z,3.07
2019-04-05T18:51:14.699Z,2.60
2019-04-05T18:53:43.338Z,1.60
2019-04-05T18:56:12.024Z,1.53
2019-04-05T18:58:40.682Z,2.83
2019-04-05T19:01:09.327Z,3.10
2019-04-05T19:03:38.038Z,1.47
2019-04-05T19:06:06.711Z,4.93
2019-04-05T19:08:39.952Z,1.37
2019-04-05T19:11:05.784Z,1.83
2019-04-05T19:13:34.435Z,3.60
2019-04-05T19:16:03.096Z,1.77
2019-04-05T19:18:31.886Z,1.00
2019-04-05T19:21:01.298Z,1.87
2019-04-05T19:23:29.950Z,2.27
2019-04-05T19:25:58.612Z,4.03
2019-04-05T19:28:27.290Z,3.20
2019-04-05T19:50:57.235Z,1.50
2019-04-05T19:53:25.896Z,5.13
2019-04-05T19:55:54.559Z,1.73
2019-04-05T19:58:23.201Z,2.00
2019-04-05T20:00:51.847Z,1.87
2019-04-05T20:03:20.540Z,2.10
2019-04-05T20:05:49.573Z,2.23
2019-04-05T20:08:18.240Z,1.50
2019-04-05T20:10:46.916Z,7.00
2019-04-05T20:13:15.586Z,2.70
2019-04-05T20:15:44.243Z,3.40
2019-04-05T20:18:12.882Z,2.63
2019-04-05T20:20:41.522Z,2.30
2019-04-05T20:23:10.277Z,4.07
2019-04-05T20:25:38.919Z,1.20
2019-04-05T20:28:07.582Z,1.00
2019-04-05T20:30:36.239Z,2.23
2019-04-05T20:33:04.901Z,3.37
2019-04-05T20:35:33.554Z,3.23
2019-04-05T20:38:02.195Z,0.90
2019-04-05T20:40:30.889Z,1.03
2019-04-05T20:42:59.988Z,1.33
2019-04-05T20:45:28.802Z,1.87
2019-04-05T20:47:57.467Z,2.73
2019-04-05T20:50:26.850Z,1.87
2019-04-05T20:52:55.502Z,2.50
2019-04-05T20:55:24.151Z,1.50
2019-04-05T20:57:52.851Z,2.33
2019-04-05T21:00:21.496Z,3.43
2019-04-05T21:02:50.177Z,2.23
2019-04-05T21:05:25.285Z,1.37
2019-04-05T21:07:49.206Z,1.43
2019-04-05T21:10:18.572Z,1.37
2019-04-05T21:12:47.263Z,1.93
2019-04-05T21:15:15.975Z,1.40
2019-04-05T21:17:44.627Z,4.73
2019-04-05T21:20:13.306Z,1.43
2019-04-05T21:22:41.978Z,1.33
2019-04-05T21:25:11.279Z,4.57
2019-04-05T21:27:39.963Z,1.40
2019-04-05T21:30:08.683Z,1.13
2019-04-05T21:32:37.333Z,3.10
2019-04-05T21:35:06.549Z,3.43
2019-04-05T21:37:35.474Z,2.80
2019-04-05T21:40:04.640Z,3.13
2019-04-05T21:42:33.440Z,2.30
2019-04-05T21:45:03.242Z,2.67
2019-04-05T21:47:32.093Z,5.10
2019-04-05T21:50:00.884Z,1.77
2019-04-05T21:52:29.677Z,7.83
2019-04-05T21:54:58.504Z,4.13
2019-04-05T21:57:27.393Z,3.17
2019-04-05T21:59:56.175Z,4.20
2019-04-05T22:02:25.530Z,2.27
2019-04-05T22:04:54.319Z,3.63
2019-04-05T22:07:23.081Z,4.27
2019-04-05T22:09:51.890Z,3.63
2019-04-05T22:12:23.481Z,3.90
2019-04-05T22:14:51.840Z,3.77
2019-04-05T22:17:21.737Z,4.53
2019-04-05T22:19:50.896Z,1.87
2019-04-05T22:22:19.722Z,3.03
2019-04-05T22:24:58.734Z,4.50
2019-04-05T22:27:19.675Z,3.90
2019-04-05T22:29:48.485Z,2.43
2019-04-05T22:32:17.303Z,2.17
2019-04-05T22:34:46.083Z,4.07
2019-04-05T22:37:14.901Z,2.73
2019-04-05T22:39:43.704Z,2.23
2019-04-05T22:42:14.222Z,2.20
2019-04-05T22:44:43.066Z,2.63
2019-04-05T22:47:11.881Z,2.10
2019-04-05T22:49:40.666Z,1.60
2019-04-05T22:52:09.472Z,3.87
2019-04-05T22:54:38.258Z,3.13
2019-04-05T22:57:07.055Z,2.50
2019-04-05T22:59:35.880Z,2.00
2019-04-05T23:02:04.677Z,1.60
2019-04-05T23:04:33.474Z,3.17
2019-04-05T23:07:02.283Z,1.73
2019-04-05T23:09:31.107Z,1.90
2019-04-05T23:12:00.530Z,2.37
2019-04-05T23:14:29.325Z,2.00
2019-04-05T23:16:58.130Z,9.00
2019-04-05T23:19:26.967Z,2.30
2019-04-05T23:21:55.765Z,1.97
2019-04-05T23:24:24.567Z,2.47
2019-04-05T23:26:53.357Z,3.47
2019-04-05T23:29:22.147Z,3.67
2019-04-05T23:31:50.950Z,2.30
2019-04-05T23:34:20.068Z,2.10
2019-04-05T23:36:48.887Z,2.47
2019-04-05T23:39:17.684Z,3.50
2019-04-05T23:41:46.482Z,2.00
2019-04-05T23:44:15.316Z,3.80
2019-04-05T23:46:44.142Z,4.80
2019-04-05T23:49:12.939Z,2.30
2019-04-05T23:51:41.745Z,2.10
2019-04-05T23:54:10.570Z,1.97
2019-04-05T23:56:39.364Z,2.10
2019-04-05T23:59:08.177Z,2.07
